Terminal Aerodrome Forecast
Issued by NWS Albuquerque, NM

Home | Current Version | Previous Version | Text Only | Print | Product List | Glossary On
Versions: 1 2 3 4 5 6 7 8 9 10 11 12 13 14 15 16 17 18 19
000
FTUS45 KABQ 311100
TAFABQ
TAF
KABQ 311134Z 3112/0112 35005KT P6SM -RASN SCT002 OVC015
      TEMPO 3112/3116 4SM -SN BR BKN002
     FM311800 VRB04KT P6SM -RA SCT009 OVC025
     FM312200 29006KT P6SM VCSH SCT025 OVC040
     FM010200 33006KT P6SM SCT040 BKN080
     FM010800 35007KT P6SM SCT009 BKN040
      TEMPO 0108/0112 4SM BR BKN009=

USA.gov is the U.S. government's official web portal to all federal, state and local government web resources and services.